Time;durP1;ratioP1;P1;durP2;ratioP2;P2;SDS_P1;SDS_P2;PMS_P1;PMS_P2;Temp;Humidity;BMP_temperature;BMP_pressure;BME280_temperature;BME280_humidity;BME280_pressure;Samples;Min_cycle;Max_cycle;Signal;HPM_P1;HPM_P2
2021/05/23 00:00:35;;;;;;;5.93;2.40;;;;;;;;;;2068880;28;20276;-73
2021/05/23 00:01:36;;;;;;;4.72;2.20;;;;;;;;;;2068759;28;20028;-73
2021/05/23 00:02:37;;;;;;;6.30;2.28;;;;;;;;;;2072761;28;20052;-73
2021/05/23 00:03:38;;;;;;;5.25;2.28;;;;;;;;;;2065175;28;20052;-73
2021/05/23 00:04:39;;;;;;;3.95;2.08;;;;;;;;;;2062140;28;20104;-72
2021/05/23 00:05:41;;;;;;;3.25;2.00;;;;;;;;;;2075651;28;20333;-73
2021/05/23 00:06:42;;;;;;;4.85;2.20;;;;;;;;;;2058122;28;20131;-73
2021/05/23 00:07:48;;;;;;;4.82;2.28;;;;;;;;;;2049665;28;20416;-74
2021/05/23 00:08:49;;;;;;;5.05;2.03;;;;;;;;;;2057335;28;20041;-73
2021/05/23 00:09:52;;;;;;;3.38;2.00;;;;;;;;;;2055481;28;20312;-73
2021/05/23 00:10:57;;;;;;;4.15;1.95;;;;;;;;;;2067979;28;20045;-73
2021/05/23 00:11:58;;;;;;;3.22;2.00;;;;;;;;;;2080898;28;20040;-74
2021/05/23 00:13:01;;;;;;;5.78;2.05;;;;;;;;;;2073841;28;20032;-74
2021/05/23 00:14:02;;;;;;;4.28;2.17;;;;;;;;;;2061897;28;20041;-73
2021/05/23 00:15:05;;;;;;;3.92;2.00;;;;;;;;;;2057321;28;20041;-73
2021/05/23 00:16:16;;;;;;;3.53;2.03;;;;;;;;;;2065253;28;20263;-72
2021/05/23 00:17:17;;;;;;;5.55;1.70;;;;;;;;;;2061389;28;20539;-72
2021/05/23 00:18:18;;;;;;;4.10;2.10;;;;;;;;;;2065094;28;20277;-72
2021/05/23 00:19:20;;;;;;;2.58;1.80;;;;;;;;;;2057759;28;20417;-73
2021/05/23 00:20:21;;;;;;;3.40;1.83;;;;;;;;;;2068789;28;20097;-72
2021/05/23 00:21:26;;;;;;;4.05;1.70;;;;;;;;;;2077098;28;20380;-72
2021/05/23 00:22:27;;;;;;;3.58;1.73;;;;;;;;;;2064767;28;20170;-73
2021/05/23 00:23:28;;;;;;;3.50;1.98;;;;;;;;;;2052856;28;20056;-73
2021/05/23 00:24:30;;;;;;;6.85;2.00;;;;;;;;;;2061586;28;20474;-72
2021/05/23 00:25:31;;;;;;;4.20;2.00;;;;;;;;;;2067439;28;20341;-73
2021/05/23 00:26:33;;;;;;;4.25;1.70;;;;;;;;;;2074254;28;20036;-73
2021/05/23 00:27:34;;;;;;;3.28;1.80;;;;;;;;;;2075702;28;20048;-73
2021/05/23 00:28:36;;;;;;;3.92;2.03;;;;;;;;;;2066720;28;20619;-73
2021/05/23 00:29:37;;;;;;;4.38;2.20;;;;;;;;;;2064442;28;20074;-72
2021/05/23 00:30:38;;;;;;;3.30;1.85;;;;;;;;;;2074172;28;20047;-74
2021/05/23 00:31:39;;;;;;;5.88;2.08;;;;;;;;;;2070942;28;20568;-73
2021/05/23 00:32:41;;;;;;;4.20;1.95;;;;;;;;;;2073771;28;20048;-73
2021/05/23 00:33:42;;;;;;;8.43;1.90;;;;;;;;;;2072184;28;20439;-73
2021/05/23 00:34:43;;;;;;;3.42;1.88;;;;;;;;;;2070309;28;20036;-73
2021/05/23 00:35:44;;;;;;;7.18;2.47;;;;;;;;;;2062404;28;20152;-72
2021/05/23 00:36:46;;;;;;;6.45;2.63;;;;;;;;;;2074123;28;20112;-73
2021/05/23 00:37:48;;;;;;;3.47;2.00;;;;;;;;;;2071186;28;20364;-73
2021/05/23 00:38:50;;;;;;;8.60;3.22;;;;;;;;;;2076689;28;20305;-72
2021/05/23 00:39:51;;;;;;;;;;;;;;;;;;2076689;28;20180;-74
2021/05/23 00:40:52;;;;;;;4.85;1.90;;;;;;;;;;2066427;28;19913;-74
2021/05/23 00:41:53;;;;;;;;;;;;;;;;;;2055978;28;20071;-73
2021/05/23 00:42:55;;;;;;;4.47;1.90;;;;;;;;;;2063397;28;20088;-73
2021/05/23 00:43:55;;;;;;;;;;;;;;;;;;2066078;28;20311;-72
2021/05/23 00:44:57;;;;;;;4.00;1.83;;;;;;;;;;2074529;28;20277;-72
2021/05/23 00:45:58;;;;;;;3.63;1.83;;;;;;;;;;2072607;28;20174;-72
2021/05/23 00:46:59;;;;;;;4.15;1.98;;;;;;;;;;2071128;28;20276;-73
2021/05/23 00:48:01;;;;;;;3.13;1.98;;;;;;;;;;2064707;28;20186;-72
2021/05/23 00:49:02;;;;;;;3.15;1.75;;;;;;;;;;2057984;28;20079;-75
2021/05/23 00:50:05;;;;;;;2.75;1.77;;;;;;;;;;2056994;28;20225;-74
2021/05/23 00:51:06;;;;;;;3.88;2.22;;;;;;;;;;2046309;28;20401;-74
2021/05/23 00:52:08;;;;;;;3.13;1.70;;;;;;;;;;2064475;28;20147;-75
2021/05/23 00:53:09;;;;;;;2.78;1.55;;;;;;;;;;2059071;28;20040;-72
2021/05/23 00:54:10;;;;;;;;;;;;;;;;;;2073099;28;20043;-72
2021/05/23 00:55:11;;;;;;;5.18;1.98;;;;;;;;;;2062350;28;19973;-73
2021/05/23 00:56:16;;;;;;;;;;;;;;;;;;2062819;28;20188;-72
2021/05/23 00:57:18;;;;;;;2.65;1.30;;;;;;;;;;2072362;28;20130;-72
2021/05/23 00:58:20;;;;;;;4.10;1.75;;;;;;;;;;2073556;28;20039;-73
2021/05/23 00:59:21;;;;;;;4.18;1.98;;;;;;;;;;2072357;28;20479;-73
2021/05/23 01:00:31;;;;;;;6.03;1.60;;;;;;;;;;2069926;28;20363;-73
2021/05/23 01:01:44;;;;;;;3.95;1.80;;;;;;;;;;2074050;28;20151;-73
2021/05/23 01:02:49;;;;;;;5.65;2.00;;;;;;;;;;2070896;28;20040;-72
2021/05/23 01:03:52;;;;;;;2.78;1.70;;;;;;;;;;2056408;28;20146;-73
2021/05/23 01:04:53;;;;;;;2.70;1.67;;;;;;;;;;2062433;28;20200;-73
2021/05/23 01:05:55;;;;;;;4.50;1.90;;;;;;;;;;2070712;28;20211;-72
2021/05/23 01:06:56;;;;;;;5.18;1.92;;;;;;;;;;2069844;28;20047;-72
2021/05/23 01:07:57;;;;;;;3.45;1.98;;;;;;;;;;2064370;28;20328;-72
2021/05/23 01:08:59;;;;;;;3.88;2.08;;;;;;;;;;2057522;28;20109;-73
2021/05/23 01:10:05;;;;;;;3.17;1.60;;;;;;;;;;2060698;28;20899;-73
2021/05/23 01:11:09;;;;;;;2.20;1.90;;;;;;;;;;2061562;28;20078;-73
2021/05/23 01:12:36;;;;;;;3.15;2.03;;;;;;;;;;2069003;28;20052;-73
2021/05/23 01:13:56;;;;;;;3.75;2.00;;;;;;;;;;2028684;28;20131;-73
2021/05/23 01:14:58;;;;;;;4.35;1.95;;;;;;;;;;2052076;28;20386;-74
2021/05/23 01:16:00;;;;;;;4.93;2.08;;;;;;;;;;2063596;28;20227;-73
2021/05/23 01:17:01;;;;;;;;;;;;;;;;;;2075330;28;20036;-73
2021/05/23 01:18:04;;;;;;;3.13;2.15;;;;;;;;;;2061340;28;19920;-73
2021/05/23 01:19:11;;;;;;;4.88;2.20;;;;;;;;;;2059705;28;20250;-73
2021/05/23 01:20:22;;;;;;;3.80;2.10;;;;;;;;;;2064910;28;20135;-73
2021/05/23 01:21:26;;;;;;;4.57;2.25;;;;;;;;;;2064872;28;20090;-73
2021/05/23 01:22:53;;;;;;;3.15;2.15;;;;;;;;;;2064164;28;20231;-73
2021/05/23 01:23:56;;;;;;;5.53;2.15;;;;;;;;;;2060831;28;20113;-72
2021/05/23 01:25:04;;;;;;;4.00;2.08;;;;;;;;;;2071845;28;20032;-72
2021/05/23 01:26:07;;;;;;;4.20;2.00;;;;;;;;;;2069312;28;20285;-72
2021/05/23 01:27:10;;;;;;;7.05;2.40;;;;;;;;;;2069167;28;20044;-73
2021/05/23 01:28:12;;;;;;;2.67;1.95;;;;;;;;;;2070531;28;20340;-73
2021/05/23 01:29:13;;;;;;;2.63;1.98;;;;;;;;;;2054272;28;20256;-73
2021/05/23 01:30:16;;;;;;;5.82;2.30;;;;;;;;;;2063124;28;20190;-72
2021/05/23 01:31:19;;;;;;;2.58;1.80;;;;;;;;;;2076820;28;20044;-73
2021/05/23 01:32:20;;;;;;;6.05;1.92;;;;;;;;;;2080512;28;20448;-74
2021/05/23 01:35:00;;;;;;;4.53;2.33;;;;;;;;;;2056208;28;20153;-73
2021/05/23 01:36:01;;;;;;;3.70;2.22;;;;;;;;;;2073093;28;20151;-73
2021/05/23 01:37:06;;;;;;;3.60;2.40;;;;;;;;;;2071222;28;20044;-73
2021/05/23 01:38:11;;;;;;;5.75;2.88;;;;;;;;;;2046033;28;20740;-73
2021/05/23 01:39:14;;;;;;;6.85;2.90;;;;;;;;;;2055751;28;20037;-73
2021/05/23 01:40:16;;;;;;;4.60;2.78;;;;;;;;;;2065484;28;20236;-72
2021/05/23 01:41:18;;;;;;;4.15;3.28;;;;;;;;;;2075461;28;20140;-73
2021/05/23 01:42:19;;;;;;;6.65;3.28;;;;;;;;;;2074793;28;20052;-73
2021/05/23 01:43:21;;;;;;;8.07;3.58;;;;;;;;;;2065821;28;20033;-73
2021/05/23 01:44:22;;;;;;;;;;;;;;;;;;2071716;28;20498;-73
2021/05/23 01:45:23;;;;;;;5.40;2.90;;;;;;;;;;2081552;28;20114;-73
2021/05/23 01:46:25;;;;;;;4.78;2.60;;;;;;;;;;2073944;28;20788;-73
2021/05/23 01:47:26;;;;;;;12.38;5.50;;;;;;;;;;2074828;28;20300;-73
2021/05/23 01:48:27;;;;;;;22.90;9.50;;;;;;;;;;2063408;28;20110;-73
2021/05/23 01:49:28;;;;;;;;;;;;;;;;;;2062230;28;20068;-73
2021/05/23 01:50:29;;;;;;;19.02;7.93;;;;;;;;;;2077777;28;19916;-73
2021/05/23 01:51:30;;;;;;;16.30;7.00;;;;;;;;;;2067015;28;20033;-73
2021/05/23 01:52:31;;;;;;;10.77;4.70;;;;;;;;;;2061373;28;20283;-73
2021/05/23 01:53:33;;;;;;;13.20;5.35;;;;;;;;;;2063700;28;20496;-73
2021/05/23 01:54:34;;;;;;;;;;;;;;;;;;2065803;28;20310;-73
2021/05/23 01:55:36;;;;;;;9.55;3.58;;;;;;;;;;2060126;28;19917;-73
2021/05/23 01:56:38;;;;;;;7.68;3.10;;;;;;;;;;2060081;28;20102;-73
2021/05/23 01:57:39;;;;;;;10.63;4.13;;;;;;;;;;2070966;28;20393;-73
2021/05/23 01:58:40;;;;;;;8.77;3.63;;;;;;;;;;2073089;28;20188;-73
2021/05/23 01:59:41;;;;;;;8.38;3.60;;;;;;;;;;2073566;28;20078;-73
2021/05/23 02:00:46;;;;;;;5.00;3.08;;;;;;;;;;2065162;28;20568;-73
2021/05/23 02:01:47;;;;;;;9.65;3.60;;;;;;;;;;2064182;28;20040;-73
2021/05/23 02:02:48;;;;;;;7.63;3.30;;;;;;;;;;2073238;28;20096;-72
2021/05/23 02:03:50;;;;;;;6.45;3.30;;;;;;;;;;2066118;28;20044;-72
2021/05/23 02:05:18;;;;;;;6.95;3.53;;;;;;;;;;2057639;28;20033;-73
2021/05/23 02:06:38;;;;;;;5.88;2.55;;;;;;;;;;2059031;28;20170;-74
2021/05/23 02:07:39;;;;;;;3.70;2.70;;;;;;;;;;2068628;28;20389;-72
2021/05/23 02:08:41;;;;;;;5.43;2.83;;;;;;;;;;2074155;28;20276;-73
2021/05/23 02:09:42;;;;;;;4.38;2.88;;;;;;;;;;2073893;28;20055;-73
2021/05/23 02:10:43;;;;;;;3.65;2.78;;;;;;;;;;2061678;28;20045;-73
2021/05/23 02:11:44;;;;;;;;;;;;;;;;;;2054561;28;20061;-73
2021/05/23 02:12:46;;;;;;;4.38;3.00;;;;;;;;;;2050820;28;19924;-73
2021/05/23 02:13:51;;;;;;;5.82;2.90;;;;;;;;;;2053361;28;20178;-73
2021/05/23 02:14:52;;;;;;;5.90;2.72;;;;;;;;;;2064340;28;20422;-72
2021/05/23 02:15:54;;;;;;;4.68;2.45;;;;;;;;;;2073874;28;20032;-73
2021/05/23 02:16:55;;;;;;;4.90;2.58;;;;;;;;;;2063566;28;21036;-73
2021/05/23 02:17:56;;;;;;;3.88;2.63;;;;;;;;;;2063113;28;20034;-73
2021/05/23 02:18:57;;;;;;;4.25;2.63;;;;;;;;;;2063660;28;20805;-72
2021/05/23 02:19:58;;;;;;;4.28;2.25;;;;;;;;;;2064359;28;20578;-72
2021/05/23 02:21:00;;;;;;;5.60;2.63;;;;;;;;;;2064126;28;20438;-73
2021/05/23 02:22:01;;;;;;;;;;;;;;;;;;2061089;28;20052;-73
2021/05/23 02:23:04;;;;;;;6.57;2.28;;;;;;;;;;2064474;28;20162;-73
2021/05/23 02:24:05;;;;;;;5.03;2.50;;;;;;;;;;2065031;28;20042;-74
2021/05/23 02:25:08;;;;;;;5.30;2.80;;;;;;;;;;2068265;28;20032;-73
2021/05/23 02:26:09;;;;;;;5.25;2.85;;;;;;;;;;2061533;28;20552;-73
2021/05/23 02:27:11;;;;;;;3.63;3.00;;;;;;;;;;2059967;28;20557;-72
2021/05/23 02:28:12;;;;;;;4.80;2.78;;;;;;;;;;2060604;28;20045;-73
2021/05/23 02:29:14;;;;;;;6.60;3.38;;;;;;;;;;2078859;28;20502;-74
2021/05/23 02:30:19;;;;;;;4.10;2.40;;;;;;;;;;2078478;28;20039;-73
2021/05/23 02:31:20;;;;;;;4.20;2.67;;;;;;;;;;2067596;28;20434;-72
2021/05/23 02:32:21;;;;;;;3.75;2.67;;;;;;;;;;2071120;28;20089;-73
2021/05/23 02:33:23;;;;;;;5.85;2.75;;;;;;;;;;2068448;28;20055;-73
2021/05/23 02:34:28;;;;;;;3.38;2.78;;;;;;;;;;2065119;28;20279;-73
2021/05/23 02:35:31;;;;;;;4.65;2.90;;;;;;;;;;2075102;28;20099;-73
2021/05/23 02:36:33;;;;;;;3.58;2.60;;;;;;;;;;2074954;28;20043;-74
2021/05/23 02:37:34;;;;;;;7.43;2.65;;;;;;;;;;2074437;28;20296;-73
2021/05/23 02:38:35;;;;;;;4.28;2.20;;;;;;;;;;2064765;28;20667;-73
2021/05/23 02:39:36;;;;;;;7.22;1.92;;;;;;;;;;2067430;28;20489;-73
2021/05/23 02:40:38;;;;;;;2.60;2.17;;;;;;;;;;2074249;28;20273;-73
2021/05/23 02:41:39;;;;;;;5.47;1.98;;;;;;;;;;2073899;28;20037;-73
2021/05/23 02:42:41;;;;;;;3.67;2.67;;;;;;;;;;2064749;28;20471;-74
2021/05/23 02:43:42;;;;;;;3.20;2.00;;;;;;;;;;2066971;28;20063;-74
2021/05/23 02:44:43;;;;;;;3.08;1.67;;;;;;;;;;2069698;28;20043;-73
2021/05/23 02:45:45;;;;;;;2.05;1.80;;;;;;;;;;2068233;28;20195;-72
2021/05/23 02:46:46;;;;;;;2.60;1.65;;;;;;;;;;2074117;28;20101;-73
2021/05/23 02:47:48;;;;;;;2.88;1.80;;;;;;;;;;2076978;28;20040;-73
2021/05/23 02:48:49;;;;;;;1.98;1.67;;;;;;;;;;2073827;28;20043;-73
2021/05/23 02:49:50;;;;;;;5.25;1.90;;;;;;;;;;2079933;28;20353;-73
2021/05/23 02:50:52;;;;;;;3.35;1.60;;;;;;;;;;2076889;28;20028;-73
2021/05/23 02:51:53;;;;;;;5.47;1.88;;;;;;;;;;2074375;28;20527;-73
2021/05/23 02:52:55;;;;;;;2.58;1.70;;;;;;;;;;2074327;28;20120;-73
2021/05/23 02:53:56;;;;;;;4.75;1.90;;;;;;;;;;2072275;28;20523;-73
2021/05/23 02:54:57;;;;;;;2.47;1.90;;;;;;;;;;2075715;28;20287;-73
2021/05/23 02:55:59;;;;;;;7.28;2.20;;;;;;;;;;2079428;28;20084;-73
2021/05/23 02:56:59;;;;;;;;;;;;;;;;;;2069509;28;20302;-73
2021/05/23 02:58:01;;;;;;;2.60;1.55;;;;;;;;;;2069862;28;19916;-73
2021/05/23 02:59:02;;;;;;;3.83;1.70;;;;;;;;;;2079157;28;20104;-73
2021/05/23 03:00:03;;;;;;;;;;;;;;;;;;2083440;28;20396;-73
2021/05/23 03:01:04;;;;;;;2.67;1.63;;;;;;;;;;2077864;28;20114;-73
2021/05/23 03:02:05;;;;;;;4.15;1.73;;;;;;;;;;2073932;28;20215;-74
2021/05/23 03:03:07;;;;;;;2.97;1.67;;;;;;;;;;2081111;28;20036;-73
2021/05/23 03:04:08;;;;;;;4.47;1.88;;;;;;;;;;2069688;28;20403;-73
2021/05/23 03:05:10;;;;;;;1.95;1.60;;;;;;;;;;2077304;28;20252;-73
2021/05/23 03:06:11;;;;;;;2.08;1.67;;;;;;;;;;2069790;28;20123;-73
2021/05/23 03:07:12;;;;;;;3.45;1.75;;;;;;;;;;2071717;28;20520;-74
2021/05/23 03:08:14;;;;;;;3.97;1.48;;;;;;;;;;2082292;28;20043;-73
2021/05/23 03:09:15;;;;;;;2.72;1.60;;;;;;;;;;2082925;28;20579;-73
2021/05/23 03:10:18;;;;;;;5.22;1.63;;;;;;;;;;2073112;28;20020;-73
2021/05/23 03:11:19;;;;;;;4.90;1.60;;;;;;;;;;2072035;28;20312;-74
2021/05/23 03:12:20;;;;;;;3.55;2.08;;;;;;;;;;2075469;28;20179;-74
2021/05/23 03:13:22;;;;;;;4.63;2.30;;;;;;;;;;2070654;28;20040;-73
2021/05/23 03:14:23;;;;;;;3.92;2.50;;;;;;;;;;2083205;28;20529;-74
2021/05/23 03:15:25;;;;;;;3.08;2.03;;;;;;;;;;2073649;28;20092;-74
2021/05/23 03:16:27;;;;;;;2.85;1.80;;;;;;;;;;2068378;28;20246;-74
2021/05/23 03:17:28;;;;;;;2.65;1.77;;;;;;;;;;2066885;28;20067;-74
2021/05/23 03:18:29;;;;;;;3.88;2.35;;;;;;;;;;2071552;28;20024;-73
2021/05/23 03:19:30;;;;;;;3.95;1.75;;;;;;;;;;2059076;28;20048;-73
2021/05/23 03:20:33;;;;;;;3.97;2.00;;;;;;;;;;2060309;28;20361;-74
2021/05/23 03:21:34;;;;;;;3.97;1.60;;;;;;;;;;2069354;28;20041;-74
2021/05/23 03:22:37;;;;;;;3.95;1.60;;;;;;;;;;2044111;28;20048;-73
2021/05/23 03:23:38;;;;;;;2.30;1.60;;;;;;;;;;2045556;28;20117;-73
2021/05/23 03:24:39;;;;;;;2.30;1.73;;;;;;;;;;2059845;28;20324;-73
2021/05/23 03:25:44;;;;;;;3.90;1.63;;;;;;;;;;2058615;28;20064;-74
2021/05/23 03:26:45;;;;;;;2.30;1.30;;;;;;;;;;2058424;28;20038;-73
2021/05/23 03:27:46;;;;;;;4.00;1.50;;;;;;;;;;2071983;28;20552;-74
2021/05/23 03:28:47;;;;;;;2.00;1.40;;;;;;;;;;2077647;28;20195;-73
2021/05/23 03:29:48;;;;;;;3.55;1.60;;;;;;;;;;2076892;28;20289;-74
2021/05/23 03:30:49;;;;;;;3.53;1.50;;;;;;;;;;2077267;28;20032;-74
2021/05/23 03:32:02;;;;;;;1.70;1.30;;;;;;;;;;2053080;28;20253;-73
2021/05/23 03:33:04;;;;;;;3.88;1.92;;;;;;;;;;2067104;28;20041;-74
2021/05/23 03:34:05;;;;;;;;;;;;;;;;;;2069667;28;20361;-73
2021/05/23 03:38:22;;;;;;;6.70;2.28;;;;;;;;;;2077037;28;20251;-73
2021/05/23 03:39:23;;;;;;;3.70;1.73;;;;;;;;;;2077632;28;20307;-72
2021/05/23 03:40:25;;;;;;;2.95;1.98;;;;;;;;;;2075684;28;20448;-72
2021/05/23 03:41:26;;;;;;;;;;;;;;;;;;2063348;28;20136;-73
2021/05/23 03:42:27;;;;;;;4.45;1.65;;;;;;;;;;2057898;28;19960;-73
2021/05/23 03:43:28;;;;;;;4.72;1.95;;;;;;;;;;2067762;28;20048;-73
2021/05/23 03:44:29;;;;;;;2.67;1.70;;;;;;;;;;2060955;28;20532;-73
2021/05/23 03:45:30;;;;;;;3.38;1.70;;;;;;;;;;2060623;28;20202;-72
2021/05/23 03:46:31;;;;;;;5.60;2.22;;;;;;;;;;2063513;28;20039;-72
2021/05/23 03:47:33;;;;;;;1.92;1.70;;;;;;;;;;2045106;28;20041;-73
2021/05/23 03:48:34;;;;;;;4.78;2.00;;;;;;;;;;2043270;28;20038;-73
2021/05/23 03:49:38;;;;;;;3.88;1.65;;;;;;;;;;2061346;28;20043;-73
2021/05/23 03:50:39;;;;;;;5.57;2.10;;;;;;;;;;2068860;28;20501;-72
2021/05/23 03:51:40;;;;;;;4.18;1.80;;;;;;;;;;2068890;28;20371;-74
2021/05/23 03:52:41;;;;;;;2.70;1.80;;;;;;;;;;2069020;28;20241;-74
2021/05/23 03:53:42;;;;;;;;;;;;;;;;;;2071217;28;20541;-73
2021/05/23 03:54:43;;;;;;;2.88;1.88;;;;;;;;;;2061776;28;20041;-73
2021/05/23 03:55:45;;;;;;;2.20;2.00;;;;;;;;;;2060938;28;20893;-74
2021/05/23 03:56:46;;;;;;;2.67;1.88;;;;;;;;;;2059524;28;20132;-74
2021/05/23 03:57:47;;;;;;;6.20;2.15;;;;;;;;;;2061721;28;20801;-73
2021/05/23 03:58:48;;;;;;;6.00;1.98;;;;;;;;;;2067499;28;20094;-73
2021/05/23 03:59:49;;;;;;;3.83;1.83;;;;;;;;;;2068215;28;20239;-73
2021/05/23 04:00:51;;;;;;;1.50;1.40;;;;;;;;;;2058639;28;20033;-74
2021/05/23 04:01:52;;;;;;;4.32;2.13;;;;;;;;;;2064057;28;20210;-73
2021/05/23 04:02:55;;;;;;;;;;;;;;;;;;2073484;28;20082;-74
2021/05/23 04:03:59;;;;;;;3.90;1.80;;;;;;;;;;2072795;28;19944;-73
2021/05/23 04:05:00;;;;;;;4.35;2.80;;;;;;;;;;2071472;28;20434;-74
2021/05/23 04:06:03;;;;;;;2.45;1.48;;;;;;;;;;2061517;28;20044;-73
2021/05/23 04:07:05;;;;;;;4.38;1.30;;;;;;;;;;2054989;28;20439;-73
2021/05/23 04:08:06;;;;;;;3.17;1.45;;;;;;;;;;2060748;28;20060;-73
2021/05/23 04:09:07;;;;;;;5.32;1.55;;;;;;;;;;2059181;28;20229;-73
2021/05/23 04:10:09;;;;;;;3.22;2.10;;;;;;;;;;2059396;28;20258;-73
2021/05/23 04:11:14;;;;;;;7.30;2.20;;;;;;;;;;2068228;28;20251;-73
2021/05/23 04:12:20;;;;;;;4.93;2.22;;;;;;;;;;2063439;28;20037;-72
2021/05/23 04:13:23;;;;;;;6.35;2.05;;;;;;;;;;2056300;28;20153;-73
2021/05/23 04:14:24;;;;;;;3.72;2.10;;;;;;;;;;2044381;28;20410;-73
2021/05/23 04:15:26;;;;;;;2.00;1.58;;;;;;;;;;2055222;28;20239;-73
2021/05/23 04:16:27;;;;;;;2.92;1.50;;;;;;;;;;2066135;28;20262;-73
2021/05/23 04:17:28;;;;;;;2.38;1.60;;;;;;;;;;2058238;28;20037;-74
2021/05/23 04:18:29;;;;;;;3.05;1.83;;;;;;;;;;2050100;28;20526;-74
2021/05/23 04:19:30;;;;;;;4.32;1.58;;;;;;;;;;2046743;28;20047;-73
2021/05/23 04:20:31;;;;;;;2.35;1.60;;;;;;;;;;2066719;28;20286;-73
2021/05/23 04:21:34;;;;;;;3.85;1.70;;;;;;;;;;2059403;28;20067;-74
2021/05/23 04:24:32;;;;;;;2.10;1.33;;;;;;;;;;2059364;28;20037;-73
2021/05/23 04:25:33;;;;;;;2.40;1.40;;;;;;;;;;2065273;28;20033;-73
2021/05/23 04:26:35;;;;;;;3.65;1.60;;;;;;;;;;2070263;28;20566;-73
2021/05/23 04:27:36;;;;;;;4.03;1.90;;;;;;;;;;2068599;28;20063;-73
2021/05/23 04:28:38;;;;;;;5.45;1.90;;;;;;;;;;2057763;28;20730;-75
2021/05/23 04:29:39;;;;;;;5.43;1.95;;;;;;;;;;2057592;28;20877;-73
2021/05/23 04:30:40;;;;;;;4.78;1.70;;;;;;;;;;2060207;28;20037;-74
2021/05/23 04:31:41;;;;;;;6.22;1.55;;;;;;;;;;2060215;28;20641;-74
2021/05/23 04:32:42;;;;;;;4.80;1.65;;;;;;;;;;2071446;28;20044;-73
2021/05/23 04:33:44;;;;;;;8.07;1.75;;;;;;;;;;2058878;28;20049;-75
2021/05/23 04:34:44;;;;;;;;;;;;;;;;;;2052055;28;20068;-73
2021/05/23 04:35:46;;;;;;;3.90;1.70;;;;;;;;;;2062731;28;19916;-74
2021/05/23 04:36:47;;;;;;;;;;;;;;;;;;2062930;28;20250;-74
2021/05/23 04:37:48;;;;;;;5.65;1.70;;;;;;;;;;2069947;28;20367;-74
2021/05/23 04:38:49;;;;;;;3.05;1.60;;;;;;;;;;2060876;28;20183;-74
2021/05/23 04:39:50;;;;;;;;;;;;;;;;;;2064358;28;20165;-74
2021/05/23 04:40:51;;;;;;;3.88;2.00;;;;;;;;;;2050128;28;20214;-74
2021/05/23 04:41:52;;;;;;;3.45;1.92;;;;;;;;;;2057564;28;20390;-74
2021/05/23 04:42:54;;;;;;;3.42;1.67;;;;;;;;;;2062344;28;20341;-73
2021/05/23 04:43:55;;;;;;;;;;;;;;;;;;2059191;28;20380;-74
2021/05/23 04:44:56;;;;;;;3.10;1.75;;;;;;;;;;2060141;28;20602;-73
2021/05/23 04:45:57;;;;;;;6.32;1.98;;;;;;;;;;2055587;28;20798;-75
2021/05/23 04:46:58;;;;;;;3.45;1.92;;;;;;;;;;2061250;28;20088;-75
2021/05/23 04:47:59;;;;;;;4.45;2.30;;;;;;;;;;2068283;28;22078;-74
2021/05/23 04:49:00;;;;;;;4.35;1.90;;;;;;;;;;2068388;28;20060;-73
2021/05/23 04:50:04;;;;;;;2.78;2.00;;;;;;;;;;2061917;28;20420;-75
2021/05/23 04:51:05;;;;;;;3.42;1.70;;;;;;;;;;2064743;28;20049;-76
2021/05/23 04:52:10;;;;;;;2.10;1.70;;;;;;;;;;2070390;28;20242;-74
2021/05/23 04:53:11;;;;;;;3.40;1.80;;;;;;;;;;2063744;28;20052;-75
2021/05/23 04:54:12;;;;;;;2.63;1.75;;;;;;;;;;2057659;28;20407;-74
2021/05/23 04:55:14;;;;;;;6.78;2.03;;;;;;;;;;2058669;28;20033;-74
2021/05/23 04:56:15;;;;;;;3.97;1.70;;;;;;;;;;2057994;28;20417;-72
2021/05/23 04:57:16;;;;;;;3.10;1.80;;;;;;;;;;2062898;28;20051;-74
2021/05/23 04:58:17;;;;;;;5.07;2.03;;;;;;;;;;2051613;28;20402;-74
2021/05/23 04:59:18;;;;;;;2.78;1.73;;;;;;;;;;2059515;28;20103;-73
2021/05/23 05:00:19;;;;;;;1.92;1.48;;;;;;;;;;2056695;28;20405;-75
2021/05/23 05:01:20;;;;;;;;;;;;;;;;;;2049627;28;20107;-75
2021/05/23 05:02:22;;;;;;;3.28;1.40;;;;;;;;;;2042792;28;20062;-75
2021/05/23 05:03:23;;;;;;;4.80;1.60;;;;;;;;;;2060860;28;20106;-75
2021/05/23 05:04:24;;;;;;;5.05;1.50;;;;;;;;;;2058758;28;20254;-73
2021/05/23 05:05:25;;;;;;;1.88;1.60;;;;;;;;;;2056780;28;20044;-74
2021/05/23 05:06:26;;;;;;;3.97;1.83;;;;;;;;;;2057040;28;20079;-75
2021/05/23 05:07:27;;;;;;;2.42;1.45;;;;;;;;;;2055494;28;20566;-74
2021/05/23 05:08:28;;;;;;;3.05;1.48;;;;;;;;;;2059103;28;20029;-74
2021/05/23 05:09:29;;;;;;;3.05;1.60;;;;;;;;;;2044033;28;20029;-75
2021/05/23 05:10:31;;;;;;;4.13;1.67;;;;;;;;;;2048147;28;20040;-73
2021/05/23 05:11:32;;;;;;;2.63;1.48;;;;;;;;;;2047168;28;20049;-75
2021/05/23 05:12:33;;;;;;;2.05;1.75;;;;;;;;;;2064133;28;20044;-76
2021/05/23 05:13:34;;;;;;;3.80;2.20;;;;;;;;;;2060599;28;20033;-74
2021/05/23 05:14:35;;;;;;;3.85;1.77;;;;;;;;;;2061368;28;20044;-75
2021/05/23 05:15:36;;;;;;;3.63;1.67;;;;;;;;;;2064568;28;20071;-75
2021/05/23 05:16:39;;;;;;;3.88;1.63;;;;;;;;;;2058549;28;20037;-74
2021/05/23 05:17:40;;;;;;;4.20;1.80;;;;;;;;;;2060594;28;20052;-74
2021/05/23 05:18:41;;;;;;;5.05;1.73;;;;;;;;;;2060581;28;20041;-75
2021/05/23 05:19:46;;;;;;;5.70;1.95;;;;;;;;;;2057332;28;20627;-75
2021/05/23 05:20:49;;;;;;;4.00;1.88;;;;;;;;;;2054658;28;20525;-74
2021/05/23 05:21:50;;;;;;;3.17;1.67;;;;;;;;;;2057900;28;20811;-74
2021/05/23 05:22:52;;;;;;;4.38;1.80;;;;;;;;;;2058946;28;20041;-75
2021/05/23 05:23:53;;;;;;;4.47;1.83;;;;;;;;;;2057947;28;20296;-75
2021/05/23 05:24:54;;;;;;;6.35;2.10;;;;;;;;;;2053002;28;20034;-75
2021/05/23 05:25:56;;;;;;;4.43;2.25;;;;;;;;;;2053180;28;20414;-76
2021/05/23 05:26:57;;;;;;;6.63;2.00;;;;;;;;;;2054680;28;20061;-75
2021/05/23 05:27:58;;;;;;;3.47;2.05;;;;;;;;;;2056886;28;20779;-75
2021/05/23 05:28:59;;;;;;;5.63;1.67;;;;;;;;;;2048063;28;20055;-74
2021/05/23 05:30:00;;;;;;;3.75;1.90;;;;;;;;;;2045884;28;20415;-76
2021/05/23 05:31:01;;;;;;;2.97;1.90;;;;;;;;;;2049734;28;20062;-73
2021/05/23 05:32:03;;;;;;;3.70;1.80;;;;;;;;;;2054605;28;21633;-75
2021/05/23 05:33:04;;;;;;;4.35;1.65;;;;;;;;;;2047492;28;20212;-75
2021/05/23 05:34:05;;;;;;;2.40;1.70;;;;;;;;;;2066458;28;20043;-73
2021/05/23 05:35:07;;;;;;;4.53;2.17;;;;;;;;;;2066731;28;20048;-75
2021/05/23 05:36:08;;;;;;;3.88;2.00;;;;;;;;;;2056737;28;20273;-76
2021/05/23 05:37:10;;;;;;;4.75;1.80;;;;;;;;;;2057368;28;20242;-76
2021/05/23 05:38:13;;;;;;;4.75;1.90;;;;;;;;;;2066154;28;20292;-76
2021/05/23 05:39:14;;;;;;;6.70;2.40;;;;;;;;;;2056842;28;20052;-76
2021/05/23 05:40:15;;;;;;;4.55;2.10;;;;;;;;;;2056199;28;20360;-74
2021/05/23 05:41:16;;;;;;;;;;;;;;;;;;2052699;28;20549;-75
2021/05/23 05:42:17;;;;;;;3.35;1.90;;;;;;;;;;2065618;28;20177;-75
2021/05/23 05:43:19;;;;;;;9.63;2.15;;;;;;;;;;2065646;28;20032;-75
2021/05/23 05:44:20;;;;;;;3.28;2.00;;;;;;;;;;2054609;28;20469;-76
2021/05/23 05:45:21;;;;;;;7.03;2.38;;;;;;;;;;2050605;28;20057;-76
2021/05/23 05:46:22;;;;;;;;;;;;;;;;;;2066023;28;20170;-76
2021/05/23 05:47:23;;;;;;;3.97;2.10;;;;;;;;;;2076900;28;20004;-74
2021/05/23 05:48:24;;;;;;;4.00;2.13;;;;;;;;;;2067177;28;20037;-75
2021/05/23 05:49:25;;;;;;;3.88;2.35;;;;;;;;;;2057558;28;20061;-76
2021/05/23 05:50:26;;;;;;;4.75;2.20;;;;;;;;;;2050217;28;20129;-75
2021/05/23 05:51:27;;;;;;;4.35;2.30;;;;;;;;;;2063283;28;20127;-74
2021/05/23 05:52:29;;;;;;;4.05;2.42;;;;;;;;;;2057336;28;20738;-77
2021/05/23 05:53:30;;;;;;;2.67;2.35;;;;;;;;;;2055907;28;20415;-76
2021/05/23 05:54:31;;;;;;;3.53;2.58;;;;;;;;;;2057781;28;20415;-78
2021/05/23 05:55:32;;;;;;;4.72;2.55;;;;;;;;;;2044120;28;20201;-77
2021/05/23 05:56:33;;;;;;;4.05;2.25;;;;;;;;;;2065752;28;20036;-77
2021/05/23 05:57:59;;;;;;;7.30;2.45;;;;;;;;;;2077045;28;20029;-74
2021/05/23 05:59:00;;;;;;;6.35;2.58;;;;;;;;;;2057858;28;20032;-77
2021/05/23 06:00:01;;;;;;;6.63;2.20;;;;;;;;;;2060964;28;20241;-75
2021/05/23 06:01:02;;;;;;;7.68;2.78;;;;;;;;;;2067073;28;20046;-76
2021/05/23 06:02:05;;;;;;;4.50;2.40;;;;;;;;;;2054982;28;20228;-76
2021/05/23 06:03:06;;;;;;;4.13;2.25;;;;;;;;;;2058194;28;20044;-76
2021/05/23 06:04:08;;;;;;;7.35;2.85;;;;;;;;;;2067777;28;20560;-74
2021/05/23 06:05:30;;;;;;;6.35;2.63;;;;;;;;;;2069196;28;20044;-77
2021/05/23 06:06:31;;;;;;;4.25;2.33;;;;;;;;;;2063253;28;20376;-74
2021/05/23 06:07:32;;;;;;;6.60;3.20;;;;;;;;;;2056288;28;20374;-76
2021/05/23 06:08:34;;;;;;;6.60;2.75;;;;;;;;;;2064515;28;20618;-75
2021/05/23 06:09:35;;;;;;;10.23;3.70;;;;;;;;;;2069759;28;20943;-75
2021/05/23 06:10:37;;;;;;;7.65;3.70;;;;;;;;;;2072793;28;20031;-77
2021/05/23 06:11:38;;;;;;;8.35;3.67;;;;;;;;;;2068658;28;20051;-77
2021/05/23 06:12:40;;;;;;;7.63;4.45;;;;;;;;;;2068424;28;20370;-76
2021/05/23 06:13:41;;;;;;;5.65;3.90;;;;;;;;;;2054631;28;20217;-74
2021/05/23 06:14:42;;;;;;;6.88;3.95;;;;;;;;;;2059481;28;20611;-75
2021/05/23 06:15:43;;;;;;;7.70;3.88;;;;;;;;;;2056959;28;20554;-75
2021/05/23 06:16:44;;;;;;;7.68;3.85;;;;;;;;;;2052749;28;20630;-76
2021/05/23 06:17:45;;;;;;;7.18;4.07;;;;;;;;;;2064079;28;20049;-75
2021/05/23 06:18:46;;;;;;;10.65;4.50;;;;;;;;;;2059229;28;20346;-75
2021/05/23 06:19:48;;;;;;;7.55;3.75;;;;;;;;;;2066229;28;20037;-76
2021/05/23 06:20:49;;;;;;;7.65;4.30;;;;;;;;;;2073315;28;20043;-77
2021/05/23 06:22:05;;;;;;;5.93;3.22;;;;;;;;;;2079395;28;20043;-76
2021/05/23 06:23:07;;;;;;;6.00;3.40;;;;;;;;;;2070147;28;20376;-79